Time;durP1;ratioP1;P1;durP2;ratioP2;P2;SDS_P1;SDS_P2;PMS_P1;PMS_P2;Temp;Humidity;BMP_temperature;BMP_pressure;BME280_temperature;BME280_humidity;BME280_pressure;Samples;Min_cycle;Max_cycle;Signal;HPM_P1;HPM_P2
2022/03/16 00:00:32;;;;;;;23.8;6.8;;;;;;;;;;;;;
2022/03/16 00:02:57;;;;;;;21.6;6.3;;;;;;;;;;;;;
2022/03/16 00:05:26;;;;;;;20.3;7;;;;;;;;;;;;;
2022/03/16 00:07:50;;;;;;;28.8;6.8;;;;;;;;;;;;;
2022/03/16 00:10:21;;;;;;;19.3;5.8;;;;;;;;;;;;;
2022/03/16 00:12:50;;;;;;;15.4;5.4;;;;;;;;;;;;;
2022/03/16 00:15:19;;;;;;;28.3;6.3;;;;;;;;;;;;;
2022/03/16 00:17:50;;;;;;;18.1;5.9;;;;;;;;;;;;;
2022/03/16 00:20:19;;;;;;;16.2;5.9;;;;;;;;;;;;;
2022/03/16 00:22:47;;;;;;;21.5;6.3;;;;;;;;;;;;;
2022/03/16 00:25:15;;;;;;;22.3;6.7;;;;;;;;;;;;;
2022/03/16 00:27:41;;;;;;;28.6;6.6;;;;;;;;;;;;;
2022/03/16 00:30:11;;;;;;;20.8;6.7;;;;;;;;;;;;;
2022/03/16 00:32:36;;;;;;;25;7.6;;;;;;;;;;;;;
2022/03/16 00:35:01;;;;;;;23.8;8.9;;;;;;;;;;;;;
2022/03/16 00:39:51;;;;;;;21.2;8.7;;;;;;;;;;;;;
2022/03/16 00:43:06;;;;;;;24.4;8.6;;;;;;;;;;;;;
2022/03/16 00:45:20;;;;;;;24.3;9.1;;;;;;;;;;;;;
2022/03/16 00:47:47;;;;;;;28.2;9.2;;;;;;;;;;;;;
2022/03/16 00:50:14;;;;;;;26.1;9.1;;;;;;;;;;;;;
2022/03/16 00:52:39;;;;;;;21.1;8.9;;;;;;;;;;;;;
2022/03/16 00:55:04;;;;;;;22.8;9.2;;;;;;;;;;;;;
2022/03/16 00:57:32;;;;;;;23;7.7;;;;;;;;;;;;;
2022/03/16 00:59:58;;;;;;;26.3;8.6;;;;;;;;;;;;;
2022/03/16 01:02:23;;;;;;;25.6;8.7;;;;;;;;;;;;;
2022/03/16 01:05:16;;;;;;;24.4;7.7;;;;;;;;;;;;;
2022/03/16 01:07:42;;;;;;;20.9;7.4;;;;;;;;;;;;;
2022/03/16 01:10:07;;;;;;;20.2;7.8;;;;;;;;;;;;;
2022/03/16 01:12:32;;;;;;;22;7.9;;;;;;;;;;;;;
2022/03/16 01:14:57;;;;;;;19.6;7.2;;;;;;;;;;;;;
2022/03/16 01:17:22;;;;;;;18.1;5.8;;;;;;;;;;;;;
2022/03/16 01:19:48;;;;;;;19.9;6.2;;;;;;;;;;;;;
2022/03/16 01:22:13;;;;;;;19.1;5.9;;;;;;;;;;;;;
2022/03/16 01:24:40;;;;;;;18.1;5;;;;;;;;;;;;;
2022/03/16 01:27:05;;;;;;;16;4.8;;;;;;;;;;;;;
2022/03/16 01:29:30;;;;;;;15;5;;;;;;;;;;;;;
2022/03/16 01:31:55;;;;;;;15.9;4.5;;;;;;;;;;;;;
2022/03/16 01:34:20;;;;;;;15.8;4.4;;;;;;;;;;;;;
2022/03/16 01:36:45;;;;;;;18.4;4.3;;;;;;;;;;;;;
2022/03/16 01:39:13;;;;;;;15.6;4.9;;;;;;;;;;;;;
2022/03/16 01:41:38;;;;;;;15.1;4.7;;;;;;;;;;;;;
2022/03/16 01:44:03;;;;;;;16;4.9;;;;;;;;;;;;;
2022/03/16 01:46:28;;;;;;;14.6;4.9;;;;;;;;;;;;;
2022/03/16 01:48:55;;;;;;;13.3;4.2;;;;;;;;;;;;;
2022/03/16 01:51:20;;;;;;;15;5;;;;;;;;;;;;;
2022/03/16 01:53:46;;;;;;;14.6;4.2;;;;;;;;;;;;;
2022/03/16 01:56:11;;;;;;;17.5;4.7;;;;;;;;;;;;;
2022/03/16 01:58:37;;;;;;;11.9;4;;;;;;;;;;;;;
2022/03/16 02:01:02;;;;;;;15.3;4.3;;;;;;;;;;;;;
2022/03/16 02:03:29;;;;;;;11.9;4.6;;;;;;;;;;;;;
2022/03/16 02:05:54;;;;;;;16.4;3.9;;;;;;;;;;;;;
2022/03/16 02:08:20;;;;;;;17.6;4.8;;;;;;;;;;;;;
2022/03/16 02:10:45;;;;;;;16.3;5.1;;;;;;;;;;;;;
2022/03/16 02:13:11;;;;;;;18.7;5.2;;;;;;;;;;;;;
2022/03/16 02:15:37;;;;;;;16.1;4.4;;;;;;;;;;;;;
2022/03/16 02:18:05;;;;;;;25.1;5.1;;;;;;;;;;;;;
2022/03/16 02:20:30;;;;;;;13.3;4.6;;;;;;;;;;;;;
2022/03/16 02:22:56;;;;;;;15.4;4.6;;;;;;;;;;;;;
2022/03/16 02:25:21;;;;;;;13.2;4.4;;;;;;;;;;;;;
2022/03/16 02:27:47;;;;;;;15.3;4.8;;;;;;;;;;;;;
2022/03/16 02:30:12;;;;;;;12.7;3.9;;;;;;;;;;;;;
2022/03/16 02:32:38;;;;;;;11.5;4.7;;;;;;;;;;;;;
2022/03/16 02:35:03;;;;;;;19.1;4.8;;;;;;;;;;;;;
2022/03/16 02:37:28;;;;;;;16.2;4.9;;;;;;;;;;;;;
2022/03/16 02:39:54;;;;;;;11.7;4;;;;;;;;;;;;;
2022/03/16 02:42:20;;;;;;;14.8;4.1;;;;;;;;;;;;;
2022/03/16 02:44:46;;;;;;;16.4;4.8;;;;;;;;;;;;;
2022/03/16 02:47:11;;;;;;;14.5;4.6;;;;;;;;;;;;;
2022/03/16 02:49:37;;;;;;;12.1;4.4;;;;;;;;;;;;;
2022/03/16 02:52:02;;;;;;;15.8;4.7;;;;;;;;;;;;;
2022/03/16 02:54:29;;;;;;;15.3;5.2;;;;;;;;;;;;;
2022/03/16 02:56:54;;;;;;;19.2;6;;;;;;;;;;;;;
2022/03/16 02:59:20;;;;;;;15.9;5.4;;;;;;;;;;;;;
2022/03/16 03:01:45;;;;;;;17.9;5.8;;;;;;;;;;;;;
2022/03/16 03:04:10;;;;;;;18.1;6.4;;;;;;;;;;;;;
2022/03/16 03:06:35;;;;;;;19.1;5.6;;;;;;;;;;;;;
2022/03/16 03:09:00;;;;;;;16.8;5.8;;;;;;;;;;;;;
2022/03/16 03:11:25;;;;;;;16;5.2;;;;;;;;;;;;;
2022/03/16 03:13:52;;;;;;;14.4;5;;;;;;;;;;;;;
2022/03/16 03:16:17;;;;;;;11.8;4.4;;;;;;;;;;;;;
2022/03/16 03:18:42;;;;;;;15.9;4.9;;;;;;;;;;;;;
2022/03/16 03:21:07;;;;;;;13.9;5.2;;;;;;;;;;;;;
2022/03/16 03:23:33;;;;;;;17.7;5.3;;;;;;;;;;;;;
2022/03/16 03:25:58;;;;;;;14.6;5.4;;;;;;;;;;;;;
2022/03/16 03:28:24;;;;;;;11.7;4.9;;;;;;;;;;;;;
2022/03/16 03:30:49;;;;;;;14.3;4.2;;;;;;;;;;;;;
2022/03/16 03:33:16;;;;;;;12.9;4.8;;;;;;;;;;;;;
2022/03/16 03:35:41;;;;;;;12.5;4.6;;;;;;;;;;;;;
2022/03/16 03:38:06;;;;;;;10.9;4.7;;;;;;;;;;;;;
2022/03/16 03:40:31;;;;;;;12.9;4.4;;;;;;;;;;;;;
2022/03/16 03:42:59;;;;;;;14.7;4.8;;;;;;;;;;;;;
2022/03/16 03:45:24;;;;;;;12.8;3.9;;;;;;;;;;;;;
2022/03/16 03:47:49;;;;;;;16.4;5.2;;;;;;;;;;;;;
2022/03/16 03:50:16;;;;;;;15.4;5.1;;;;;;;;;;;;;
2022/03/16 03:52:40;;;;;;;15.6;4.9;;;;;;;;;;;;;
2022/03/16 03:55:05;;;;;;;14.6;4.9;;;;;;;;;;;;;
2022/03/16 03:57:31;;;;;;;13.9;4.3;;;;;;;;;;;;;
2022/03/16 03:59:57;;;;;;;15.4;4.5;;;;;;;;;;;;;
2022/03/16 04:02:31;;;;;;;14.2;4.3;;;;;;;8.37;85.24805;943.4771;;;;
2022/03/16 04:04:56;;;;;;;15.3;4.6;;;;;;;8.32;85.43262;943.4301;;;;
2022/03/16 04:07:23;;;;;;;12.1;4.7;;;;;;;8.34;85.46973;943.4612;;;;
2022/03/16 04:09:50;;;;;;;14.2;4.6;;;;;;;8.33;85.62695;943.4915;;;;
2022/03/16 04:12:13;;;;;;;13.9;4;;;;;;;8.34;85.74219;943.4842;;;;
2022/03/16 04:14:39;;;;;;;12.7;4.7;;;;;;;8.3;86.07617;943.5297;;;;
2022/03/16 04:17:04;;;;;;;16;5;;;;;;;8.25;86.16699;943.4989;;;;
2022/03/16 04:19:34;;;;;;;18.4;4.9;;;;;;;8.3;86.00586;943.5739;;;;
2022/03/16 04:22:05;;;;;;;15.2;5.1;;;;;;;8.38;85.60352;943.5933;;;;
2022/03/16 04:24:38;;;;;;;13.2;4.9;;;;;;;8.35;85.50586;943.6566;;;;
2022/03/16 04:27:03;;;;;;;15;4.7;;;;;;;8.39;85.10547;943.6649;;;;
2022/03/16 04:29:33;;;;;;;17;4.9;;;;;;;8.18;86.79102;943.6777;;;;
2022/03/16 04:31:59;;;;;;;15.7;4.8;;;;;;;8.32;86.22754;943.6967;;;;
2022/03/16 04:34:23;;;;;;;17.7;5.6;;;;;;;8.35;85.80273;943.6892;;;;
2022/03/16 04:36:51;;;;;;;12.2;4.9;;;;;;;8.36;86.11133;943.7355;;;;
2022/03/16 04:39:16;;;;;;;14.1;5.2;;;;;;;8.35;86.21191;943.8019;;;;
2022/03/16 04:41:48;;;;;;;16.3;5.7;;;;;;;8.43;85.80566;943.7353;;;;
2022/03/16 04:44:17;;;;;;;17.7;5.9;;;;;;;8.48;85.62305;943.8246;;;;
2022/03/16 04:46:42;;;;;;;13.5;5;;;;;;;8.48;85.47363;943.8428;;;;
2022/03/16 04:49:07;;;;;;;14.4;5.5;;;;;;;8.55;85.11328;943.8415;;;;
2022/03/16 04:51:32;;;;;;;13.6;5.4;;;;;;;8.5;85.27441;943.8069;;;;
2022/03/16 04:53:58;;;;;;;18.1;5.8;;;;;;;8.57;85.11719;943.8164;;;;
2022/03/16 04:56:25;;;;;;;15.7;5.9;;;;;;;8.61;84.79395;943.8049;;;;
2022/03/16 04:58:50;;;;;;;15.6;6;;;;;;;8.53;85.08887;943.8379;;;;
2022/03/16 05:01:21;;;;;;;12.7;5.5;;;;;;;8.56;84.98047;943.8036;;;;
2022/03/16 05:03:49;;;;;;;12.7;5.5;;;;;;;8.57;84.81152;943.7761;;;;
2022/03/16 05:06:14;;;;;;;17;5.9;;;;;;;8.52;85.19922;943.7733;;;;
2022/03/16 05:08:41;;;;;;;19;6.3;;;;;;;8.53;85.17773;943.802;;;;
2022/03/16 05:11:06;;;;;;;17.1;6;;;;;;;8.46;85.44727;943.8217;;;;
2022/03/16 05:13:34;;;;;;;18.5;6.4;;;;;;;8.5;85.46777;943.8354;;;;
2022/03/16 05:16:07;;;;;;;18.2;6.4;;;;;;;8.56;85.21777;943.7916;;;;
2022/03/16 05:18:32;;;;;;;16.5;6;;;;;;;8.63;84.89063;943.9033;;;;
2022/03/16 05:20:57;;;;;;;18.4;5.6;;;;;;;8.51;85.57227;943.9515;;;;
2022/03/16 05:23:25;;;;;;;14.6;6;;;;;;;8.56;85.35547;943.9791;;;;
2022/03/16 05:25:57;;;;;;;21.8;7.2;;;;;;;8.61;85.0332;943.9747;;;;
2022/03/16 05:28:28;;;;;;;13.8;5.6;;;;;;;8.56;85.15137;943.9734;;;;
2022/03/16 05:30:53;;;;;;;11.8;5.5;;;;;;;8.59;84.75879;943.9702;;;;
2022/03/16 05:33:24;;;;;;;14.5;5.8;;;;;;;8.61;84.62402;943.9858;;;;
2022/03/16 05:35:53;;;;;;;13.5;5.9;;;;;;;8.6;84.4873;944.0442;;;;
2022/03/16 05:38:18;;;;;;;20.2;6.5;;;;;;;8.62;84.13867;944.0309;;;;
2022/03/16 05:40:46;;;;;;;16.9;6.8;;;;;;;8.63;84.19531;944.0994;;;;
2022/03/16 05:43:12;;;;;;;16.7;6.1;;;;;;;8.67;84.10352;944.1448;;;;
2022/03/16 05:45:36;;;;;;;14.7;5.8;;;;;;;8.75;83.78809;944.1764;;;;
2022/03/16 05:51:38;;;;;;;18;7.5;;;;;;;8.76;84.05273;944.2219;;;;
2022/03/16 05:54:03;;;;;;;16.3;6.3;;;;;;;8.79;83.77246;944.3043;;;;
2022/03/16 05:56:31;;;;;;;15;7.1;;;;;;;8.76;83.76855;944.2696;;;;
2022/03/16 05:58:55;;;;;;;12;5.9;;;;;;;8.73;83.70508;944.2569;;;;
2022/03/16 06:01:22;;;;;;;13.3;5.5;;;;;;;8.77;83.23633;944.2849;;;;
2022/03/16 06:03:47;;;;;;;13.5;5.1;;;;;;;8.75;82.43555;944.3455;;;;
2022/03/16 06:06:20;;;;;;;17.6;5.8;;;;;;;8.63;82.37891;944.3312;;;;
2022/03/16 06:08:42;;;;;;;15.2;6;;;;;;;8.66;82.7041;944.3155;;;;
2022/03/16 06:11:09;;;;;;;13.9;5.3;;;;;;;8.67;83.05762;944.3047;;;;
2022/03/16 06:13:34;;;;;;;13.4;5.4;;;;;;;8.71;83.11035;944.3309;;;;
2022/03/16 06:16:04;;;;;;;12.4;5;;;;;;;8.73;82.76172;944.3569;;;;
2022/03/16 06:18:29;;;;;;;10.2;5.1;;;;;;;8.75;82.20801;944.324;;;;
2022/03/16 06:20:59;;;;;;;14;5.2;;;;;;;8.69;82.5498;944.332;;;;
2022/03/16 06:23:30;;;;;;;12.7;5.1;;;;;;;8.63;82.61914;944.3337;;;;
2022/03/16 06:25:58;;;;;;;11.4;5.5;;;;;;;8.6;83.02148;944.3564;;;;
2022/03/16 06:28:23;;;;;;;15.5;5.8;;;;;;;8.67;82.79688;944.4109;;;;
2022/03/16 06:30:51;;;;;;;15.4;5.8;;;;;;;8.66;82.89648;944.3933;;;;
2022/03/16 06:33:17;;;;;;;10.6;5.5;;;;;;;8.76;82.7207;944.5029;;;;
2022/03/16 06:35:46;;;;;;;12.6;5.6;;;;;;;8.85;82.39941;944.457;;;;
2022/03/16 06:38:14;;;;;;;12;5.8;;;;;;;8.86;82.5127;944.4827;;;;
2022/03/16 06:40:39;;;;;;;13.5;5.8;;;;;;;8.92;82.49219;944.4622;;;;
2022/03/16 06:43:07;;;;;;;14.3;5.8;;;;;;;9.03;81.91016;944.4636;;;;
2022/03/16 06:45:32;;;;;;;17.2;6;;;;;;;9.07;81.64258;944.3945;;;;
2022/03/16 06:47:58;;;;;;;12.6;6;;;;;;;9.13;81.83789;944.5233;;;;
2022/03/16 06:50:23;;;;;;;16.6;5.8;;;;;;;9.16;81.71777;944.5344;;;;
2022/03/16 06:52:50;;;;;;;13.4;5.9;;;;;;;9.22;81.73926;944.4875;;;;
2022/03/16 06:55:15;;;;;;;17.6;6.8;;;;;;;9.19;81.92773;944.5256;;;;
2022/03/16 06:57:42;;;;;;;10.5;5.5;;;;;;;9.1;82.79883;944.5964;;;;
2022/03/16 07:00:09;;;;;;;17.5;6.5;;;;;;;9.17;82.2207;944.5592;;;;
2022/03/16 07:02:36;;;;;;;12.4;6.2;;;;;;;9.31;82.20215;944.5574;;;;
2022/03/16 07:05:01;;;;;;;10.5;5.6;;;;;;;9.35;80.82031;944.5457;;;;
2022/03/16 07:07:27;;;;;;;17;6.1;;;;;;;9.26;80.87109;944.5396;;;;
2022/03/16 07:09:52;;;;;;;11.8;6.1;;;;;;;9.37;80.31152;944.5167;;;;
2022/03/16 07:12:19;;;;;;;17.1;6.5;;;;;;;9.48;80.00293;944.6024;;;;
2022/03/16 07:14:44;;;;;;;16.8;7.4;;;;;;;9.53;80.125;944.555;;;;
2022/03/16 07:17:09;;;;;;;14.9;6.3;;;;;;;9.56;80.42578;944.4705;;;;
2022/03/16 07:19:39;;;;;;;16.9;6.4;;;;;;;9.67;80.73145;944.5559;;;;
2022/03/16 07:22:04;;;;;;;13.2;6.1;;;;;;;9.76;79.7793;944.562;;;;
2022/03/16 07:27:44;;;;;;;14.1;6;;;;;;;9.68;79.79883;944.5991;;;;
2022/03/16 07:30:14;;;;;;;12.8;6.4;;;;;;;9.82;79.33496;944.6208;;;;
2022/03/16 07:32:44;;;;;;;13.8;6.1;;;;;;;9.97;78.32422;944.6663;;;;
2022/03/16 07:35:09;;;;;;;15.8;7;;;;;;;9.91;78.45313;944.6859;;;;
2022/03/16 07:37:34;;;;;;;16.3;6.2;;;;;;;9.97;78.22266;944.6767;;;;
2022/03/16 07:39:59;;;;;;;13.6;5.5;;;;;;;10.05;78.01953;944.6692;;;;
2022/03/16 07:42:24;;;;;;;15.3;6.6;;;;;;;10.08;78.17285;944.665;;;;
2022/03/16 07:44:53;;;;;;;13.9;6.1;;;;;;;10.25;77.16504;944.6429;;;;
2022/03/16 07:47:18;;;;;;;13.6;5.5;;;;;;;10.26;76.96191;944.6424;;;;
2022/03/16 07:49:46;;;;;;;16;5.9;;;;;;;10.3;77.34766;944.6672;;;;
2022/03/16 07:52:11;;;;;;;14.9;5.7;;;;;;;10.42;77.14063;944.6572;;;;
2022/03/16 07:54:37;;;;;;;17.9;6.9;;;;;;;10.49;77.24316;944.6514;;;;
2022/03/16 07:57:03;;;;;;;13;5.9;;;;;;;10.61;76.56738;944.6728;;;;
2022/03/16 07:59:28;;;;;;;17.3;7.8;;;;;;;10.48;76.33984;944.6767;;;;
2022/03/16 08:01:53;;;;;;;19.3;7.9;;;;;;;10.24;76.7998;944.7073;;;;
2022/03/16 08:04:22;;;;;;;15.9;6.7;;;;;;;10.24;77.68848;944.7009;;;;
2022/03/16 08:06:50;;;;;;;13.6;6.2;;;;;;;10.51;77.2002;944.6884;;;;
2022/03/16 08:09:16;;;;;;;15.3;7.4;;;;;;;10.59;77.43262;944.7067;;;;
2022/03/16 08:11:44;;;;;;;17.8;7.1;;;;;;;10.8;76.37305;944.742;;;;
2022/03/16 08:14:09;;;;;;;19.2;8;;;;;;;10.92;75.20508;944.7278;;;;
2022/03/16 08:16:34;;;;;;;17.7;7.9;;;;;;;11.05;75;944.7441;;;;
2022/03/16 08:19:02;;;;;;;16.6;6.8;;;;;;;11.19;74.56738;944.6852;;;;
2022/03/16 08:21:32;;;;;;;12.9;7.1;;;;;;;11.24;74.82813;944.6456;;;;
2022/03/16 08:23:57;;;;;;;17.5;7.3;;;;;;;11.33;74.6123;944.6462;;;;
2022/03/16 08:26:25;;;;;;;16.4;6.6;;;;;;;11.54;73.81348;944.7114;;;;
2022/03/16 08:28:50;;;;;;;12.9;6.3;;;;;;;11.72;72.67871;944.697;;;;
2022/03/16 08:31:19;;;;;;;12.6;6.2;;;;;;;11.98;71.47363;944.7294;;;;
2022/03/16 08:33:43;;;;;;;11;5.6;;;;;;;12.09;71.06641;944.6889;;;;
2022/03/16 08:36:12;;;;;;;14.2;6;;;;;;;12.11;71.21973;944.7043;;;;
2022/03/16 08:38:38;;;;;;;13.2;4.8;;;;;;;12.06;70.77539;944.7252;;;;
2022/03/16 08:41:02;;;;;;;10.9;5.1;;;;;;;12.23;70.40234;944.6089;;;;
2022/03/16 08:43:30;;;;;;;13.2;5.3;;;;;;;12.28;69.92871;944.6136;;;;
2022/03/16 08:45:55;;;;;;;13.3;5.4;;;;;;;12.33;69.47949;944.5488;;;;
2022/03/16 08:48:23;;;;;;;16.5;5.6;;;;;;;12.62;69.7998;944.5703;;;;
2022/03/16 08:50:48;;;;;;;9.6;5;;;;;;;13.11;68.04004;944.5306;;;;
2022/03/16 08:53:18;;;;;;;9.1;5;;;;;;;13.14;67.83789;944.5916;;;;
2022/03/16 08:55:48;;;;;;;10.5;5.6;;;;;;;13.55;67.68359;944.617;;;;
2022/03/16 08:58:14;;;;;;;10.8;5.5;;;;;;;14.16;65.17578;944.6214;;;;
2022/03/16 09:00:41;;;;;;;11;6.2;;;;;;;14.25;65.60547;944.5909;;;;
2022/03/16 09:03:06;;;;;;;11.7;5.8;;;;;;;14.68;63.96484;944.5786;;;;
2022/03/16 09:05:38;;;;;;;10;6;;;;;;;14.94;63.32129;944.4971;;;;
2022/03/16 09:08:09;;;;;;;10;6.5;;;;;;;15.62;61.28223;944.563;;;;
2022/03/16 09:10:38;;;;;;;10;6;;;;;;;16.53;58.09961;944.5514;;;;
2022/03/16 09:13:06;;;;;;;10.7;6.1;;;;;;;17.17;56.22461;944.5134;;;;
2022/03/16 09:15:29;;;;;;;10.5;5.9;;;;;;;17.86;54.44336;944.5002;;;;
2022/03/16 09:17:55;;;;;;;11.1;5.6;;;;;;;18.33;51.75879;944.4576;;;;
2022/03/16 09:20:24;;;;;;;8.6;5.8;;;;;;;18.55;51.31934;944.4676;;;;
2022/03/16 09:22:49;;;;;;;10.6;6.1;;;;;;;17.67;53.93262;944.4673;;;;
2022/03/16 09:25:17;;;;;;;11.3;6.5;;;;;;;17.18;55.41406;944.4449;;;;
2022/03/16 09:27:42;;;;;;;8.8;6.8;;;;;;;17.21;54.88477;944.3312;;;;
2022/03/16 09:30:13;;;;;;;12.6;6.3;;;;;;;17.53;54.21777;944.4351;;;;
2022/03/16 09:32:40;;;;;;;11.7;6.7;;;;;;;17.08;55.64551;944.4456;;;;
2022/03/16 09:35:06;;;;;;;9.7;6.6;;;;;;;16.97;57.29004;944.4933;;;;
2022/03/16 09:37:32;;;;;;;10.1;7;;;;;;;16.86;57.52832;944.415;;;;
2022/03/16 09:39:57;;;;;;;9.5;7;;;;;;;17.02;56.27441;944.3759;;;;
2022/03/16 09:42:24;;;;;;;11.6;6.4;;;;;;;17.01;55.60156;944.3861;;;;
2022/03/16 09:44:50;;;;;;;11.8;7.2;;;;;;;17.41;54.67773;944.3431;;;;
2022/03/16 09:47:15;;;;;;;10.6;6.9;;;;;;;17.94;52.81738;944.327;;;;
2022/03/16 09:49:41;;;;;;;13.1;7.3;;;;;;;17.81;52.90527;944.3215;;;;
2022/03/16 09:52:11;;;;;;;9.9;7.5;;;;;;;17.57;53.41016;944.2988;;;;
2022/03/16 09:54:35;;;;;;;12.2;7.6;;;;;;;17.97;52.88867;944.3139;;;;
2022/03/16 09:57:02;;;;;;;12.2;7.4;;;;;;;17.52;54.07617;944.2991;;;;
2022/03/16 09:59:27;;;;;;;9.6;7;;;;;;;16.81;56.38574;944.3409;;;;
2022/03/16 10:01:56;;;;;;;11.6;8.1;;;;;;;16.91;56.08594;944.2547;;;;
2022/03/16 10:04:22;;;;;;;9.9;7.9;;;;;;;17;55.42676;944.2389;;;;
2022/03/16 10:06:47;;;;;;;13.2;7.7;;;;;;;16.88;55.53906;944.1671;;;;
2022/03/16 10:14:14;;;;;;;9.5;7.9;;;;;;;16.6;56.18652;944.158;;;;
2022/03/16 10:17:45;;;;;;;10.1;7.8;;;;;;;16.99;54.9502;944.0692;;;;
2022/03/16 10:19:17;;;;;;;12.4;8.4;;;;;;;16.23;58.12891;944.0248;;;;
2022/03/16 10:21:42;;;;;;;11.7;8.6;;;;;;;15.97;59.5166;944.0344;;;;
2022/03/16 10:24:13;;;;;;;12.4;8.6;;;;;;;16.38;57.84766;944.0403;;;;
2022/03/16 10:26:45;;;;;;;12;8.4;;;;;;;16.81;56.53809;944.008;;;;
2022/03/16 10:29:10;;;;;;;12.7;8.8;;;;;;;17.34;55.98047;943.9258;;;;
2022/03/16 10:31:38;;;;;;;14.1;10;;;;;;;17.24;56.11719;943.9506;;;;
2022/03/16 10:34:08;;;;;;;12.7;9.6;;;;;;;17.65;54.60352;943.9383;;;;
2022/03/16 10:36:33;;;;;;;13.9;8.9;;;;;;;18.14;52.58496;943.9127;;;;
2022/03/16 10:39:01;;;;;;;14.7;9.9;;;;;;;17.96;53.05078;943.8596;;;;
2022/03/16 10:48:39;;;;;;;16.4;10.6;;;;;;;17.53;55.16895;943.9906;;;;
2022/03/16 10:51:08;;;;;;;13.2;11;;;;;;;17.65;54.66113;943.9681;;;;
2022/03/16 10:53:38;;;;;;;18;10.9;;;;;;;17.77;54.97754;943.9722;;;;
2022/03/16 10:56:02;;;;;;;13.9;10.9;;;;;;;18.14;53.01465;943.9523;;;;
2022/03/16 10:58:28;;;;;;;15.8;11.4;;;;;;;17.36;54.89258;943.9803;;;;
2022/03/16 11:00:53;;;;;;;14.9;10.9;;;;;;;16.92;56.71387;943.9763;;;;
2022/03/16 11:03:19;;;;;;;15.1;11.4;;;;;;;16.69;57.54297;943.9796;;;;
2022/03/16 11:05:44;;;;;;;16.6;11.4;;;;;;;16.94;56.56543;943.927;;;;
2022/03/16 11:08:12;;;;;;;16.8;11.6;;;;;;;17.22;55.99902;943.9545;;;;
2022/03/16 11:10:38;;;;;;;17;11.8;;;;;;;17.02;55.87012;943.8601;;;;
2022/03/16 11:15:36;;;;;;;18.7;11.9;;;;;;;17.2;56.41406;943.8081;;;;
2022/03/16 11:18:02;;;;;;;16.5;11.5;;;;;;;17.35;55.4248;943.8;;;;
2022/03/16 11:20:34;;;;;;;15.5;11.2;;;;;;;17.65;55.1377;943.7474;;;;
2022/03/16 11:25:27;;;;;;;16;12;;;;;;;18.59;52.27637;943.7484;;;;
2022/03/16 11:27:52;;;;;;;14.9;11.4;;;;;;;19.29;50.49707;943.6432;;;;
2022/03/16 11:30:17;;;;;;;15.2;10.9;;;;;;;18.82;51.23535;943.7043;;;;
2022/03/16 11:32:43;;;;;;;14.7;11;;;;;;;18.31;51.97754;943.7628;;;;
2022/03/16 11:35:12;;;;;;;13.5;10.2;;;;;;;17.81;53.34668;943.6898;;;;
2022/03/16 11:37:39;;;;;;;12.8;10.5;;;;;;;18.56;51.39063;943.7101;;;;
2022/03/16 11:40:05;;;;;;;12.8;10.5;;;;;;;18.01;52.68555;943.6962;;;;
2022/03/16 11:42:32;;;;;;;14.5;10.9;;;;;;;18.39;51.88184;943.8208;;;;
2022/03/16 11:44:56;;;;;;;15;11.1;;;;;;;17.79;53.35547;943.7569;;;;
2022/03/16 11:47:22;;;;;;;15;10.6;;;;;;;18.23;52.78125;943.6984;;;;
2022/03/16 11:49:47;;;;;;;13.4;10.6;;;;;;;18.12;52.78027;943.7413;;;;
2022/03/16 11:52:12;;;;;;;13.8;9.9;;;;;;;18.63;50.84082;943.6605;;;;
2022/03/16 11:54:38;;;;;;;15;10.4;;;;;;;19.04;49.19922;943.6306;;;;
2022/03/16 11:57:04;;;;;;;13.2;10;;;;;;;18.67;50.26367;943.5625;;;;
2022/03/16 11:59:33;;;;;;;12.2;9.8;;;;;;;18.08;51.65918;943.6312;;;;
2022/03/16 12:02:01;;;;;;;12.7;9.6;;;;;;;18.22;50.8623;943.5397;;;;
2022/03/16 12:04:25;;;;;;;13.2;9.4;;;;;;;17.43;52.75488;943.6025;;;;
2022/03/16 12:06:53;;;;;;;13.9;9.9;;;;;;;17.03;54.50293;943.5519;;;;
2022/03/16 12:09:20;;;;;;;12.3;9.8;;;;;;;17.53;53.40527;943.5428;;;;
2022/03/16 12:14:09;;;;;;;13.3;9.9;;;;;;;18.12;52.18848;943.4511;;;;
2022/03/16 12:16:43;;;;;;;12.8;10.2;;;;;;;18.35;51.26172;943.3954;;;;
2022/03/16 12:19:08;;;;;;;15.2;10.6;;;;;;;17.24;55.3418;943.3591;;;;
2022/03/16 12:21:35;;;;;;;14.3;10.2;;;;;;;16.46;57.12988;943.3939;;;;
2022/03/16 12:25:10;;;;;;;14.1;10.3;;;;;;;16.9;55.83105;943.3208;;;;
2022/03/16 12:26:29;;;;;;;15.1;10.5;;;;;;;16.72;55.87793;943.3208;;;;
2022/03/16 12:28:59;;;;;;;13.3;9.8;;;;;;;16.65;55.75293;943.3603;;;;
2022/03/16 12:31:20;;;;;;;13.2;10.7;;;;;;;16.32;57.53809;943.3003;;;;
2022/03/16 12:33:47;;;;;;;13.6;10;;;;;;;15.6;59.32715;943.2492;;;;
2022/03/16 12:36:11;;;;;;;14.6;10.9;;;;;;;15.48;60.02637;943.2508;;;;
2022/03/16 12:38:37;;;;;;;15.3;11.1;;;;;;;15.76;59.56738;943.2628;;;;
2022/03/16 12:43:28;;;;;;;14.6;9.9;;;;;;;16.03;58.20703;943.1992;;;;
2022/03/16 12:45:59;;;;;;;13.3;9.9;;;;;;;15.4;60.60547;943.2;;;;
2022/03/16 12:48:22;;;;;;;12.7;9.7;;;;;;;15.01;61.28809;943.2092;;;;
2022/03/16 12:50:47;;;;;;;15.1;9.9;;;;;;;14.87;61.89258;943.3102;;;;
2022/03/16 12:53:12;;;;;;;14.6;10.2;;;;;;;14.69;62.48926;943.2335;;;;
2022/03/16 12:55:37;;;;;;;13.7;10;;;;;;;14.33;64.26855;943.2189;;;;
2022/03/16 12:58:02;;;;;;;11.5;9.8;;;;;;;14.39;64.36035;943.2159;;;;
2022/03/16 13:00:30;;;;;;;12.4;10.5;;;;;;;14.39;64.12793;943.1245;;;;
2022/03/16 13:02:53;;;;;;;14;10.8;;;;;;;14.13;65.09082;943.1515;;;;
2022/03/16 13:05:20;;;;;;;14.2;10.3;;;;;;;14.12;65.79199;943.1498;;;;
2022/03/16 13:07:44;;;;;;;12.9;9.8;;;;;;;14.18;65.19043;943.1005;;;;
2022/03/16 13:10:13;;;;;;;13.6;10.1;;;;;;;14.18;64.85742;943.0692;;;;
2022/03/16 13:12:56;;;;;;;12.7;9.4;;;;;;;14.24;65.15527;943.1289;;;;
2022/03/16 13:15:03;;;;;;;13.6;9.8;;;;;;;13.86;67.09863;943.1622;;;;
2022/03/16 13:17:31;;;;;;;11.8;9.5;;;;;;;14.14;65.18652;943.1339;;;;
2022/03/16 13:19:59;;;;;;;12.8;9.4;;;;;;;14.34;64.52344;943.1556;;;;
2022/03/16 13:22:25;;;;;;;12.6;9.8;;;;;;;14.34;64.04004;943.0795;;;;
2022/03/16 13:24:50;;;;;;;12.8;9.7;;;;;;;14.31;64.43848;943.1227;;;;
2022/03/16 13:27:15;;;;;;;13.9;10;;;;;;;14.17;65.25879;943.0283;;;;
2022/03/16 13:29:40;;;;;;;13.3;9.4;;;;;;;13.83;65.62305;943.1396;;;;
2022/03/16 13:32:06;;;;;;;11.7;9.5;;;;;;;13.88;65.7207;943.0494;;;;
2022/03/16 13:34:31;;;;;;;11.2;9.6;;;;;;;13.83;66.11719;943.009;;;;
2022/03/16 13:36:56;;;;;;;11.6;9.3;;;;;;;13.72;66.65234;942.9755;;;;
2022/03/16 13:39:24;;;;;;;13.8;9.7;;;;;;;14.07;65.4043;942.9767;;;;
2022/03/16 13:42:04;;;;;;;13.6;9.6;;;;;;;13.98;65.53027;943.0793;;;;
2022/03/16 13:44:15;;;;;;;11.7;9.6;;;;;;;13.84;66.40723;943.1044;;;;
2022/03/16 13:46:39;;;;;;;11.8;8.9;;;;;;;13.93;66.79785;943.0583;;;;
2022/03/16 13:49:04;;;;;;;10.3;8.3;;;;;;;14.13;65.21973;943.0322;;;;
2022/03/16 13:51:30;;;;;;;10.1;8.6;;;;;;;14.14;64.77051;943.0779;;;;
2022/03/16 13:53:56;;;;;;;13.8;9.2;;;;;;;13.99;65.23242;943.0394;;;;
2022/03/16 13:56:21;;;;;;;10.1;8.5;;;;;;;14.11;65.3418;943.1258;;;;
2022/03/16 13:58:48;;;;;;;11.3;8.7;;;;;;;14.38;64.32227;943.1205;;;;
2022/03/16 14:01:12;;;;;;;9.3;8.1;;;;;;;14.28;64.5498;943.0497;;;;
2022/03/16 14:03:40;;;;;;;11.2;8.5;;;;;;;14.2;65.35547;943.0669;;;;
2022/03/16 14:06:05;;;;;;;12;8.4;;;;;;;14.24;64.91309;943.0601;;;;
2022/03/16 14:08:33;;;;;;;9.3;7.8;;;;;;;14.36;63.84766;943.0404;;;;
2022/03/16 14:10:57;;;;;;;10.5;8.1;;;;;;;13.8;65.66309;943.0255;;;;
2022/03/16 14:13:27;;;;;;;9.4;7.8;;;;;;;13.66;66.5293;943.0784;;;;
2022/03/16 14:15:53;;;;;;;9.4;7.9;;;;;;;13.8;66.08984;943.0919;;;;
2022/03/16 14:18:21;;;;;;;9.6;7.7;;;;;;;14.03;65.16699;943.0006;;;;
2022/03/16 14:20:49;;;;;;;13.5;8.5;;;;;;;13.75;65.84961;942.9796;;;;
2022/03/16 14:23:11;;;;;;;10.1;7.9;;;;;;;13.55;66.9248;942.9942;;;;
2022/03/16 14:25:39;;;;;;;10.2;7.7;;;;;;;13.56;67.50098;943.0112;;;;
2022/03/16 14:28:02;;;;;;;8.8;7.7;;;;;;;13.66;66.40137;943.012;;;;
2022/03/16 14:30:29;;;;;;;9;7.2;;;;;;;13.51;66.91992;942.9469;;;;
2022/03/16 14:32:54;;;;;;;8.3;7.4;;;;;;;13.47;67.08496;942.9883;;;;
2022/03/16 14:35:19;;;;;;;9.7;7.7;;;;;;;13.5;67.1123;942.9515;;;;
2022/03/16 14:37:44;;;;;;;10;7.9;;;;;;;13.07;69.11426;942.9703;;;;
2022/03/16 14:40:18;;;;;;;9.6;8;;;;;;;13.35;67.97363;942.9392;;;;
2022/03/16 14:42:38;;;;;;;9.6;8.1;;;;;;;13.42;67.1123;943.0087;;;;
2022/03/16 14:45:05;;;;;;;11.8;7.9;;;;;;;13.26;67.58105;943.041;;;;
2022/03/16 14:47:30;;;;;;;9.4;7.5;;;;;;;13.12;68.33984;943.0609;;;;
2022/03/16 14:49:58;;;;;;;9.8;7.7;;;;;;;12.99;69.05371;942.9902;;;;
2022/03/16 14:52:22;;;;;;;9.9;7.8;;;;;;;13.16;68.79492;943.0517;;;;
2022/03/16 14:54:47;;;;;;;9.1;7.4;;;;;;;13.32;67.80859;943.0254;;;;
2022/03/16 14:57:12;;;;;;;9.5;6.7;;;;;;;13.15;68.62109;942.998;;;;
2022/03/16 14:59:38;;;;;;;10.8;6.8;;;;;;;13.27;68.55957;943.0259;;;;
2022/03/16 15:02:03;;;;;;;8.3;7.3;;;;;;;13.33;67.70605;943.0575;;;;
2022/03/16 15:04:31;;;;;;;8.4;7.1;;;;;;;13.15;67.9209;943.0493;;;;
2022/03/16 15:06:55;;;;;;;12.8;7.2;;;;;;;13.05;68.7666;942.9902;;;;
2022/03/16 15:09:21;;;;;;;10;7.3;;;;;;;13.13;68.21484;942.9939;;;;
2022/03/16 15:11:46;;;;;;;8.5;7.1;;;;;;;13.23;67.8418;942.9425;;;;
2022/03/16 15:14:13;;;;;;;8.4;7;;;;;;;13.06;68.69727;942.9567;;;;
2022/03/16 15:16:43;;;;;;;8.6;7.5;;;;;;;13.07;68.79199;942.8951;;;;
2022/03/16 15:19:09;;;;;;;9.9;7.4;;;;;;;13.23;68.03711;942.8904;;;;
2022/03/16 15:21:35;;;;;;;8.9;7.4;;;;;;;13.13;68.53809;942.8524;;;;
2022/03/16 15:24:00;;;;;;;10.4;7.4;;;;;;;13.29;68.1377;942.8892;;;;
2022/03/16 15:26:26;;;;;;;9.3;7.4;;;;;;;13;69.16113;942.84;;;;
2022/03/16 15:28:53;;;;;;;9.3;7.3;;;;;;;13.2;68.44434;942.7772;;;;
2022/03/16 15:31:19;;;;;;;8.5;7.5;;;;;;;13.04;68.71875;942.7734;;;;
2022/03/16 15:33:44;;;;;;;12.8;7.8;;;;;;;12.96;68.87891;942.7463;;;;
2022/03/16 15:36:12;;;;;;;9.8;7.2;;;;;;;12.91;69.30469;942.7346;;;;
2022/03/16 15:38:37;;;;;;;9.8;7.3;;;;;;;12.85;69.30957;942.7174;;;;
2022/03/16 15:43:29;;;;;;;11.3;7;;;;;;;12.72;69.87402;942.7064;;;;
2022/03/16 15:45:57;;;;;;;9.9;7.7;;;;;;;12.78;70.19238;942.798;;;;
2022/03/16 15:48:22;;;;;;;9.2;7.2;;;;;;;12.84;69.62793;942.7941;;;;
2022/03/16 15:50:50;;;;;;;10.3;7.2;;;;;;;12.82;69.4873;942.7642;;;;
2022/03/16 15:53:15;;;;;;;12.4;8;;;;;;;12.86;69.27637;942.7719;;;;
2022/03/16 15:55:40;;;;;;;10.5;7.6;;;;;;;12.85;69.37793;942.7877;;;;
2022/03/16 15:58:07;;;;;;;8.8;7.1;;;;;;;12.97;68.94922;942.8373;;;;